createdAt,value
2022-08-03T00:02:19.270Z,14.27
2022-08-03T00:04:47.080Z,14.30
2022-08-03T00:07:14.796Z,14.33
2022-08-03T00:09:42.158Z,14.31
2022-08-03T00:12:09.877Z,14.23
2022-08-03T00:14:37.428Z,14.18
2022-08-03T00:17:04.821Z,14.19
2022-08-03T00:19:32.069Z,14.20
2022-08-03T00:21:59.406Z,14.18
2022-08-03T00:24:26.807Z,14.06
2022-08-03T00:26:54.167Z,14.00
2022-08-03T00:29:21.489Z,14.04
2022-08-03T00:31:52.237Z,14.07
2022-08-03T00:34:36.210Z,14.02
2022-08-03T00:37:08.134Z,14.01
2022-08-03T00:39:35.502Z,14.00
2022-08-03T00:42:05.020Z,13.94
2022-08-03T00:44:39.077Z,13.90
2022-08-03T00:47:07.183Z,13.93
2022-08-03T00:49:34.515Z,13.90
2022-08-03T00:52:09.677Z,13.83
2022-08-03T00:54:38.918Z,13.85
2022-08-03T00:57:07.915Z,13.85
2022-08-03T00:59:37.282Z,13.77
2022-08-03T01:02:05.150Z,13.77
2022-08-03T01:04:32.588Z,13.72
2022-08-03T01:07:44.539Z,13.62
2022-08-03T01:10:25.952Z,13.58
2022-08-03T01:13:07.347Z,13.54
2022-08-03T01:16:16.198Z,13.49
2022-08-03T01:19:00.032Z,13.46
2022-08-03T01:22:06.679Z,13.42
2022-08-03T01:25:28.634Z,13.38
2022-08-03T01:28:14.787Z,13.37
2022-08-03T01:30:46.012Z,13.37
2022-08-03T01:33:20.382Z,13.34
2022-08-03T01:36:05.638Z,13.33
2022-08-03T01:38:39.618Z,13.40
2022-08-03T01:41:12.242Z,13.49
2022-08-03T01:44:27.508Z,13.54
2022-08-03T01:46:32.444Z,13.40
2022-08-03T01:49:01.340Z,13.31
2022-08-03T01:52:02.681Z,13.22
2022-08-03T01:54:29.098Z,13.18
2022-08-03T01:56:58.549Z,13.23
2022-08-03T01:59:29.123Z,13.23
2022-08-03T02:02:28.233Z,13.22
2022-08-03T02:04:46.137Z,13.20
2022-08-03T02:07:15.142Z,13.17
2022-08-03T02:09:47.079Z,13.10
2022-08-03T02:15:18.666Z,13.08
2022-08-03T02:17:47.880Z,13.06
2022-08-03T02:20:16.508Z,13.10
2022-08-03T02:22:45.063Z,13.06
2022-08-03T02:25:15.552Z,13.07
2022-08-03T02:28:02.277Z,13.10
2022-08-03T02:30:39.212Z,13.08
2022-08-03T02:33:14.274Z,13.01
2022-08-03T02:35:43.178Z,13.01
2022-08-03T02:38:12.802Z,13.02
2022-08-03T02:40:43.520Z,13.03
2022-08-03T02:43:17.360Z,13.06
2022-08-03T02:45:49.810Z,13.07
2022-08-03T02:48:23.260Z,13.01
2022-08-03T02:50:54.845Z,13.00
2022-08-03T02:53:24.025Z,12.97
2022-08-03T02:55:52.545Z,12.96
2022-08-03T02:58:21.515Z,13.02
2022-08-03T03:00:52.128Z,12.99
2022-08-03T03:03:20.867Z,12.95
2022-08-03T03:05:52.729Z,12.92
2022-08-03T03:08:28.904Z,12.95
2022-08-03T03:11:00.217Z,12.89
2022-08-03T03:13:32.528Z,12.92
2022-08-03T03:16:03.867Z,12.89
2022-08-03T03:18:35.372Z,12.87
2022-08-03T03:21:05.278Z,12.84
2022-08-03T03:23:35.677Z,12.82
2022-08-03T03:26:04.099Z,12.80
2022-08-03T03:28:33.088Z,12.82
2022-08-03T03:31:01.053Z,12.87
2022-08-03T03:33:28.773Z,12.96
2022-08-03T03:35:57.723Z,13.03
2022-08-03T03:38:25.080Z,13.18
2022-08-03T03:40:53.010Z,13.25
2022-08-03T03:43:20.473Z,13.31
2022-08-03T03:45:49.272Z,13.37
2022-08-03T03:48:16.936Z,13.49
2022-08-03T03:50:45.257Z,13.60
2022-08-03T03:53:14.428Z,13.76
2022-08-03T03:55:59.297Z,13.94
2022-08-03T03:58:31.428Z,14.20
2022-08-03T04:00:58.951Z,14.32
2022-08-03T04:03:26.416Z,14.55
2022-08-03T04:06:12.119Z,14.70
2022-08-03T04:08:59.249Z,14.78
2022-08-03T04:11:36.928Z,14.88
2022-08-03T04:14:12.679Z,15.03
2022-08-03T04:16:46.334Z,15.26
2022-08-03T04:19:52.471Z,15.51
2022-08-03T04:22:27.931Z,16.07
2022-08-03T04:25:05.565Z,16.54
2022-08-03T04:27:40.849Z,16.75
2022-08-03T04:30:10.947Z,17.13
2022-08-03T04:32:44.146Z,17.44
2022-08-03T04:35:13.332Z,17.40
2022-08-03T04:37:47.972Z,17.39
2022-08-03T04:40:31.184Z,17.25
2022-08-03T04:42:59.725Z,16.98
2022-08-03T04:45:29.411Z,17.41
2022-08-03T04:47:57.545Z,18.01
2022-08-03T04:50:28.033Z,18.73
2022-08-03T04:53:05.985Z,18.99
2022-08-03T04:55:35.776Z,19.32
2022-08-03T04:58:04.156Z,19.65
2022-08-03T05:00:31.658Z,20.17
2022-08-03T05:02:59.272Z,20.75
2022-08-03T05:05:26.955Z,21.40
2022-08-03T05:08:14.277Z,21.32
2022-08-03T05:10:41.623Z,21.45
2022-08-03T05:13:13.014Z,21.78
2022-08-03T05:15:43.065Z,21.71
2022-08-03T05:18:14.128Z,21.57
2022-08-03T05:20:41.973Z,21.53
2022-08-03T05:23:09.236Z,22.44
2022-08-03T05:25:36.511Z,23.38
2022-08-03T05:28:04.435Z,23.81
2022-08-03T05:30:34.068Z,24.35
2022-08-03T05:33:03.939Z,24.81
2022-08-03T05:36:01.182Z,24.87
2022-08-03T05:38:24.010Z,25.15
2022-08-03T05:41:21.559Z,25.73
2022-08-03T05:43:47.923Z,25.89
2022-08-03T05:46:15.622Z,26.64
2022-08-03T05:48:43.695Z,27.11
2022-08-03T05:51:13.973Z,26.43
2022-08-03T05:53:43.349Z,26.86
2022-08-03T05:56:13.890Z,27.73
2022-08-03T05:58:53.322Z,27.37
2022-08-03T06:01:22.110Z,28.19
2022-08-03T06:03:50.533Z,28.15
2022-08-03T06:06:18.769Z,28.27
2022-08-03T06:08:48.852Z,29.43
2022-08-03T06:11:16.673Z,29.75
2022-08-03T06:13:44.578Z,29.60
2022-08-03T06:16:12.212Z,30.16
2022-08-03T06:18:41.149Z,30.65
2022-08-03T06:21:14.217Z,31.03
2022-08-03T06:23:54.295Z,31.33
2022-08-03T06:26:25.099Z,31.65
2022-08-03T06:28:54.130Z,31.76
2022-08-03T06:31:33.316Z,32.73
2022-08-03T06:34:35.100Z,32.39
2022-08-03T06:36:53.186Z,32.86
2022-08-03T06:39:23.825Z,33.79
2022-08-03T06:41:52.385Z,34.51
2022-08-03T06:44:20.013Z,34.46
2022-08-03T06:46:47.870Z,35.09
2022-08-03T06:49:15.334Z,35.46
2022-08-03T06:52:03.797Z,36.12
2022-08-03T06:54:33.284Z,36.29
2022-08-03T06:57:01.202Z,36.73
2022-08-03T07:00:08.077Z,36.92
2022-08-03T07:02:19.362Z,37.32
2022-08-03T07:04:48.736Z,37.04
2022-08-03T07:07:17.553Z,36.32
2022-08-03T07:09:57.007Z,35.93
2022-08-03T07:12:30.152Z,35.90
2022-08-03T07:15:01.803Z,33.52
2022-08-03T07:17:32.479Z,32.10
2022-08-03T07:20:01.374Z,32.87
2022-08-03T07:22:29.155Z,34.33
2022-08-03T07:24:56.864Z,35.15
2022-08-03T07:27:24.419Z,36.25
2022-08-03T07:29:51.793Z,37.30
2022-08-03T07:32:19.328Z,37.40
2022-08-03T07:34:46.919Z,38.30
2022-08-03T07:37:14.345Z,38.27
2022-08-03T07:39:41.769Z,39.33
2022-08-03T07:42:09.222Z,39.28
2022-08-03T07:44:36.892Z,38.53
2022-08-03T07:47:04.415Z,38.51
2022-08-03T07:49:32.911Z,39.22
2022-08-03T07:52:19.334Z,39.49
2022-08-03T07:54:46.907Z,38.27
2022-08-03T07:57:14.334Z,38.43
2022-08-03T07:59:57.158Z,39.08
2022-08-03T08:02:40.225Z,39.85
2022-08-03T08:05:08.322Z,39.36
2022-08-03T08:07:35.802Z,38.96
2022-08-03T08:10:03.573Z,39.11
2022-08-03T08:12:30.900Z,39.74
2022-08-03T08:14:58.581Z,38.87
2022-08-03T08:17:25.924Z,38.06
2022-08-03T08:19:53.552Z,38.45
2022-08-03T08:22:29.779Z,40.04
2022-08-03T08:24:59.033Z,39.66
2022-08-03T08:27:26.651Z,39.73
2022-08-03T08:29:56.319Z,39.77
2022-08-03T08:32:26.241Z,39.19
2022-08-03T08:34:54.244Z,38.36
2022-08-03T08:37:21.555Z,39.18
2022-08-03T08:39:48.882Z,39.13
2022-08-03T08:42:16.489Z,39.16
2022-08-03T08:44:43.996Z,39.38
2022-08-03T08:47:12.604Z,39.84
2022-08-03T08:49:53.468Z,39.97
2022-08-03T08:52:32.120Z,41.24
2022-08-03T08:55:05.992Z,41.48
2022-08-03T08:57:45.096Z,42.13
2022-08-03T09:00:14.901Z,41.58
2022-08-03T09:02:44.412Z,40.53
2022-08-03T09:05:22.517Z,41.61
2022-08-03T09:07:59.334Z,42.44
2022-08-03T09:10:26.721Z,42.31
2022-08-03T09:12:54.133Z,40.92
2022-08-03T09:15:26.772Z,40.20
2022-08-03T09:17:59.867Z,39.45
2022-08-03T09:20:31.120Z,40.06
2022-08-03T09:23:19.093Z,40.80
2022-08-03T09:26:00.095Z,41.53
2022-08-03T09:29:01.328Z,42.10
2022-08-03T09:31:39.642Z,40.43
2022-08-03T09:34:14.061Z,40.21
2022-08-03T09:36:50.387Z,41.38
2022-08-03T09:39:41.040Z,39.27
2022-08-03T09:42:23.976Z,39.23
2022-08-03T09:44:53.075Z,40.76
2022-08-03T09:47:36.790Z,41.58
2022-08-03T09:50:13.002Z,41.31
2022-08-03T09:52:49.833Z,41.62
2022-08-03T09:56:34.515Z,40.98
2022-08-03T09:58:10.595Z,38.02
2022-08-03T10:01:03.713Z,35.07
2022-08-03T10:03:36.129Z,34.12
2022-08-03T10:06:28.727Z,34.55
2022-08-03T10:09:16.855Z,36.69
2022-08-03T10:11:47.109Z,38.27
2022-08-03T10:14:19.338Z,35.89
2022-08-03T10:16:48.497Z,33.71
2022-08-03T10:19:16.962Z,31.52
2022-08-03T10:21:57.995Z,29.56
2022-08-03T10:24:28.255Z,30.39
2022-08-03T10:27:06.169Z,33.47
2022-08-03T10:29:42.860Z,34.70
2022-08-03T10:32:57.735Z,34.33
2022-08-03T10:35:29.567Z,34.86
2022-08-03T10:38:01.896Z,35.61
2022-08-03T10:40:48.228Z,36.55
2022-08-03T10:43:33.993Z,37.11
2022-08-03T10:46:02.552Z,37.30
2022-08-03T10:48:31.577Z,37.95
2022-08-03T10:50:59.019Z,37.41
2022-08-03T10:53:44.049Z,37.11
2022-08-03T10:57:14.282Z,37.51
2022-08-03T10:59:50.727Z,36.48
2022-08-03T11:02:18.161Z,35.45
2022-08-03T11:04:45.688Z,35.88
2022-08-03T11:07:25.230Z,35.14
2022-08-03T11:09:55.291Z,34.31
2022-08-03T11:12:31.276Z,34.70
2022-08-03T11:15:03.671Z,34.59
2022-08-03T11:17:33.864Z,34.17
2022-08-03T11:20:14.394Z,34.99
2022-08-03T11:22:54.677Z,35.30
2022-08-03T11:25:53.718Z,35.83
2022-08-03T11:28:30.700Z,35.51
2022-08-03T11:31:46.727Z,34.67
2022-08-03T11:34:12.184Z,34.06
2022-08-03T11:37:28.571Z,33.47
2022-08-03T11:39:58.877Z,33.24
2022-08-03T11:42:27.105Z,31.92
2022-08-03T11:44:58.297Z,30.84
2022-08-03T11:47:30.088Z,30.80
2022-08-03T11:50:02.057Z,31.10
2022-08-03T11:52:37.976Z,31.43
2022-08-03T11:55:11.358Z,31.22
2022-08-03T11:59:13.094Z,31.09
2022-08-03T12:00:28.909Z,30.42
2022-08-03T12:03:04.359Z,29.83
2022-08-03T12:05:52.850Z,29.54
2022-08-03T12:08:33.435Z,29.21
2022-08-03T12:11:06.910Z,29.51
2022-08-03T12:14:44.982Z,29.61
2022-08-03T12:16:34.759Z,29.17
2022-08-03T12:19:09.278Z,29.24
2022-08-03T12:21:56.810Z,29.39
2022-08-03T12:24:28.509Z,29.37
2022-08-03T12:26:59.975Z,29.16
2022-08-03T12:29:27.843Z,28.97
2022-08-03T12:31:56.148Z,29.05
2022-08-03T12:34:23.768Z,29.21
2022-08-03T12:36:55.913Z,29.35
2022-08-03T12:39:30.858Z,28.97
2022-08-03T12:41:58.727Z,28.75
2022-08-03T12:44:35.138Z,28.78
2022-08-03T12:47:06.754Z,28.87
2022-08-03T12:49:54.209Z,28.92
2022-08-03T12:52:23.154Z,28.89
2022-08-03T12:55:01.314Z,28.72
2022-08-03T12:57:42.194Z,28.68
2022-08-03T13:00:21.362Z,28.75
2022-08-03T13:03:39.134Z,28.64
2022-08-03T13:06:01.790Z,28.56
2022-08-03T13:08:29.183Z,28.66
2022-08-03T13:10:56.912Z,28.58
2022-08-03T13:13:39.897Z,28.02
2022-08-03T13:16:07.164Z,27.87
2022-08-03T13:18:34.542Z,28.10
2022-08-03T13:21:02.303Z,28.25
2022-08-03T13:23:29.768Z,28.24
2022-08-03T13:25:57.041Z,28.07
2022-08-03T13:28:24.322Z,28.15
2022-08-03T13:30:51.771Z,28.13
2022-08-03T13:33:19.205Z,28.16
2022-08-03T13:35:46.533Z,28.05
2022-08-03T13:38:15.386Z,28.15
2022-08-03T13:40:44.733Z,28.23
2022-08-03T13:43:13.479Z,28.41
2022-08-03T13:45:43.626Z,28.55
2022-08-03T13:48:14.848Z,28.63
2022-08-03T13:51:05.451Z,28.61
2022-08-03T13:53:51.137Z,28.05
2022-08-03T13:56:18.650Z,27.73
2022-08-03T13:58:46.090Z,27.82
2022-08-03T14:01:13.619Z,27.81
2022-08-03T14:03:41.198Z,27.83
2022-08-03T14:06:08.705Z,27.60
2022-08-03T14:08:36.154Z,27.67
2022-08-03T14:11:04.336Z,27.95
2022-08-03T14:13:31.738Z,27.82
2022-08-03T14:15:58.990Z,27.78
2022-08-03T14:18:27.615Z,27.81
2022-08-03T14:21:03.359Z,27.83
2022-08-03T14:23:34.030Z,27.83
2022-08-03T14:26:01.554Z,27.93
2022-08-03T14:28:28.838Z,27.87
2022-08-03T14:30:56.670Z,27.41
2022-08-03T14:33:24.744Z,27.38
2022-08-03T14:35:53.551Z,27.22
2022-08-03T14:38:21.623Z,27.10
2022-08-03T14:40:50.264Z,27.10
2022-08-03T14:43:21.490Z,26.87
2022-08-03T14:45:52.504Z,27.04
2022-08-03T14:50:31.699Z,27.19
2022-08-03T14:51:09.460Z,27.22
2022-08-03T14:53:36.942Z,27.22
2022-08-03T14:56:09.842Z,27.34
2022-08-03T14:58:38.300Z,27.21
2022-08-03T15:02:03.029Z,27.20
2022-08-03T15:03:54.844Z,27.24
2022-08-03T15:06:22.062Z,27.10
2022-08-03T15:09:06.273Z,27.09
2022-08-03T15:11:37.362Z,27.01
2022-08-03T15:14:08.998Z,26.94
2022-08-03T15:16:38.253Z,26.87
2022-08-03T15:20:05.564Z,26.82
2022-08-03T15:21:53.356Z,26.81
2022-08-03T15:24:20.800Z,26.85
2022-08-03T15:26:48.222Z,26.72
2022-08-03T15:30:04.875Z,26.68
2022-08-03T15:32:07.312Z,26.46
2022-08-03T15:34:36.443Z,26.43
2022-08-03T15:37:23.193Z,26.56
2022-08-03T15:39:59.203Z,26.45
2022-08-03T15:42:30.327Z,26.53
2022-08-03T15:44:57.846Z,26.53
2022-08-03T15:47:25.500Z,26.46
2022-08-03T15:49:53.061Z,26.32
2022-08-03T15:52:20.439Z,26.29
2022-08-03T15:54:47.807Z,26.26
2022-08-03T15:57:15.156Z,26.18
2022-08-03T15:59:42.423Z,26.18
2022-08-03T16:02:10.096Z,26.12
2022-08-03T16:04:37.446Z,25.94
2022-08-03T16:07:05.164Z,25.92
2022-08-03T16:09:42.819Z,25.90
2022-08-03T16:12:13.286Z,25.86
2022-08-03T16:14:52.910Z,25.74
2022-08-03T16:17:22.190Z,25.62
2022-08-03T16:19:50.191Z,25.67
2022-08-03T16:22:19.598Z,25.63
2022-08-03T16:24:49.643Z,25.57
2022-08-03T16:27:36.788Z,25.47
2022-08-03T16:30:06.872Z,25.38
2022-08-03T16:32:34.449Z,25.17
2022-08-03T16:35:03.042Z,25.05
2022-08-03T16:37:39.058Z,25.05
2022-08-03T16:40:17.357Z,25.04
2022-08-03T16:42:47.274Z,24.93
2022-08-03T16:45:14.820Z,24.80
2022-08-03T16:47:42.231Z,24.72
2022-08-03T16:50:17.253Z,24.55
2022-08-03T16:52:48.540Z,24.51
2022-08-03T16:55:42.945Z,24.48
2022-08-03T16:58:04.947Z,24.35
2022-08-03T17:00:41.453Z,24.22
2022-08-03T17:03:18.833Z,24.05
2022-08-03T17:05:49.928Z,23.91
2022-08-03T17:08:26.127Z,23.81
2022-08-03T17:10:56.090Z,23.67
2022-08-03T17:13:27.613Z,23.53
2022-08-03T17:16:10.515Z,23.42
2022-08-03T17:18:50.131Z,23.31
2022-08-03T17:21:23.114Z,23.14
2022-08-03T17:24:19.933Z,23.00
2022-08-03T17:26:52.768Z,22.86
2022-08-03T17:29:25.152Z,22.75
2022-08-03T17:31:53.497Z,22.58
2022-08-03T17:34:21.756Z,22.38
2022-08-03T17:37:04.066Z,22.26
2022-08-03T17:39:58.829Z,22.10
2022-08-03T17:42:30.634Z,21.95
2022-08-03T17:45:01.757Z,21.81
2022-08-03T17:47:41.848Z,21.65
2022-08-03T17:50:23.571Z,21.40
2022-08-03T17:53:24.374Z,21.18
2022-08-03T17:56:38.832Z,21.04
2022-08-03T17:59:51.629Z,20.83
2022-08-03T18:03:11.891Z,20.69
2022-08-03T18:06:11.534Z,20.55
2022-08-03T18:08:36.529Z,20.44
2022-08-03T18:11:14.785Z,20.39
2022-08-03T18:14:23.876Z,20.23
2022-08-03T18:17:04.853Z,20.14
2022-08-03T18:20:03.773Z,19.99
2022-08-03T18:22:28.394Z,19.85
2022-08-03T18:25:00.352Z,19.75
2022-08-03T18:27:42.497Z,19.75
2022-08-03T18:30:15.467Z,19.64
2022-08-03T18:32:44.381Z,19.59
2022-08-03T18:35:53.823Z,19.48
2022-08-03T18:38:18.842Z,19.39
2022-08-03T18:40:48.745Z,19.21
2022-08-03T18:43:17.669Z,19.15
2022-08-03T18:45:55.790Z,19.06
2022-08-03T18:48:46.545Z,19.00
2022-08-03T18:51:28.749Z,18.95
2022-08-03T18:54:45.623Z,18.81
2022-08-03T18:57:02.039Z,18.67
2022-08-03T18:59:52.554Z,18.58
2022-08-03T19:02:41.108Z,18.47
2022-08-03T19:05:23.854Z,18.38
2022-08-03T19:08:20.026Z,18.26
2022-08-03T19:11:00.772Z,18.26
2022-08-03T19:13:41.530Z,18.26
2022-08-03T19:16:24.602Z,18.23
2022-08-03T19:18:55.954Z,18.25
2022-08-03T19:21:23.641Z,18.30
2022-08-03T19:23:51.688Z,18.31
2022-08-03T19:26:30.265Z,18.30
2022-08-03T19:28:59.686Z,18.23
2022-08-03T19:31:30.804Z,18.17
2022-08-03T19:34:00.435Z,18.11
2022-08-03T19:36:29.052Z,18.06
2022-08-03T19:38:58.242Z,17.99
2022-08-03T19:44:29.411Z,17.95
2022-08-03T19:47:08.980Z,17.89
2022-08-03T19:50:06.302Z,17.85
2022-08-03T19:52:31.400Z,17.74
2022-08-03T19:55:00.750Z,17.67
2022-08-03T19:57:30.860Z,17.63
2022-08-03T19:59:59.285Z,17.55
2022-08-03T20:02:33.659Z,17.50
2022-08-03T20:05:02.189Z,17.48
2022-08-03T20:07:33.066Z,17.45
2022-08-03T20:10:04.338Z,17.37
2022-08-03T20:12:39.174Z,17.29
2022-08-03T20:15:08.057Z,17.24
2022-08-03T20:17:57.025Z,17.20
2022-08-03T20:20:33.619Z,17.17
2022-08-03T20:23:10.081Z,17.14
2022-08-03T20:25:58.177Z,17.06
2022-08-03T20:28:34.970Z,16.99
2022-08-03T20:31:17.619Z,16.92
2022-08-03T20:33:46.461Z,16.90
2022-08-03T20:36:18.802Z,16.83
2022-08-03T20:38:48.357Z,16.78
2022-08-03T20:41:17.564Z,16.76
2022-08-03T20:43:46.589Z,16.72
2022-08-03T20:46:29.230Z,16.68
2022-08-03T20:49:04.097Z,16.55
2022-08-03T20:51:50.448Z,16.50
2022-08-03T20:54:31.155Z,16.45
2022-08-03T20:57:04.217Z,16.43
2022-08-03T20:59:50.338Z,16.39
2022-08-03T21:02:30.001Z,16.35
2022-08-03T21:05:03.362Z,16.37
2022-08-03T21:08:05.548Z,16.36
2022-08-03T21:10:32.517Z,16.36
2022-08-03T21:13:02.695Z,17.98
2022-08-03T21:13:18.190Z,16.33
2022-08-03T21:16:02.935Z,16.22
2022-08-03T21:18:49.716Z,16.16
2022-08-03T21:21:22.869Z,16.14
2022-08-03T21:23:53.943Z,16.11
2022-08-03T21:26:25.317Z,16.10
2022-08-03T21:28:56.523Z,16.12
2022-08-03T21:31:26.598Z,16.06
2022-08-03T21:33:58.605Z,16.06
2022-08-03T21:36:32.228Z,16.09
2022-08-03T21:39:01.294Z,16.10
2022-08-03T21:41:32.634Z,16.05
2022-08-03T21:44:01.223Z,16.04
2022-08-03T21:46:35.831Z,16.02
2022-08-03T21:50:05.404Z,15.96
2022-08-03T21:52:00.296Z,15.97
2022-08-03T21:54:37.964Z,15.93
2022-08-03T21:57:22.819Z,15.92
2022-08-03T22:00:04.486Z,15.93
2022-08-03T22:02:42.962Z,15.91
2022-08-03T22:05:16.297Z,15.86
2022-08-03T22:07:44.340Z,15.81
2022-08-03T22:10:13.620Z,15.74
2022-08-03T22:12:41.909Z,15.74
2022-08-03T22:15:13.486Z,15.72
2022-08-03T22:17:53.646Z,15.68
2022-08-03T22:20:22.344Z,15.68
2022-08-03T22:22:57.010Z,15.66
2022-08-03T22:25:32.621Z,15.66
2022-08-03T22:28:09.542Z,15.66
2022-08-03T22:30:38.615Z,15.61
2022-08-03T22:33:11.097Z,15.56
2022-08-03T22:35:51.569Z,15.50
2022-08-03T22:38:19.352Z,15.48
2022-08-03T22:40:51.068Z,15.45
2022-08-03T22:43:26.724Z,15.45
2022-08-03T22:46:09.554Z,15.44
2022-08-03T22:48:40.945Z,15.38
2022-08-03T22:51:09.447Z,15.44
2022-08-03T22:53:38.360Z,15.48
2022-08-03T22:56:06.666Z,15.44
2022-08-03T22:58:34.066Z,15.43
2022-08-03T23:01:09.075Z,15.41
2022-08-03T23:04:00.538Z,15.41
2022-08-03T23:06:35.655Z,15.39
2022-08-03T23:09:14.108Z,15.38
2022-08-03T23:11:45.686Z,15.37
2022-08-03T23:14:18.742Z,15.38
2022-08-03T23:16:48.359Z,15.41
2022-08-03T23:19:25.036Z,15.43
2022-08-03T23:22:02.944Z,15.44
2022-08-03T23:24:38.917Z,15.50
2022-08-03T23:27:09.345Z,15.48
2022-08-03T23:29:37.951Z,15.49
2022-08-03T23:32:06.588Z,15.49
2022-08-03T23:34:53.966Z,15.49
2022-08-03T23:37:22.097Z,15.47
2022-08-03T23:39:49.730Z,15.48
2022-08-03T23:42:19.757Z,15.47
2022-08-03T23:44:53.102Z,15.49
2022-08-03T23:47:21.310Z,15.49
2022-08-03T23:49:49.878Z,15.51
2022-08-03T23:52:57.622Z,15.49
2022-08-03T23:55:47.423Z,15.49
2022-08-03T23:58:50.237Z,15.48
